createdAt,value
2017-10-01T00:05:01.554Z,15.42
2017-10-01T00:07:56.281Z,15.41
2017-10-01T00:10:51.034Z,15.39
2017-10-01T00:13:45.751Z,15.37
2017-10-01T00:16:40.550Z,15.35
2017-10-01T00:19:35.501Z,15.32
2017-10-01T00:22:30.246Z,15.29
2017-10-01T00:25:24.918Z,15.26
2017-10-01T00:28:19.694Z,15.25
2017-10-01T00:31:14.269Z,15.22
2017-10-01T00:34:08.936Z,15.20
2017-10-01T00:39:58.161Z,15.15
2017-10-01T00:42:52.749Z,15.13
2017-10-01T00:45:47.285Z,15.10
2017-10-01T00:48:41.992Z,15.08
2017-10-01T00:51:36.496Z,15.07
2017-10-01T00:54:31.181Z,15.07
2017-10-01T00:57:25.723Z,15.06
2017-10-01T01:03:15.026Z,15.02
2017-10-01T01:09:04.244Z,14.99
2017-10-01T01:11:58.823Z,14.97
2017-10-01T01:17:47.897Z,14.95
2017-10-01T01:23:36.914Z,14.92
2017-10-01T01:26:31.490Z,14.91
2017-10-01T01:29:26.095Z,14.90
2017-10-01T01:32:20.697Z,14.89
2017-10-01T01:35:15.256Z,14.88
2017-10-01T01:38:09.831Z,14.86
2017-10-01T01:43:59.137Z,14.84
2017-10-01T01:46:53.837Z,14.83
2017-10-01T01:49:48.542Z,14.84
2017-10-01T01:58:32.600Z,14.86
2017-10-01T02:04:22.251Z,14.87
2017-10-01T02:07:17.142Z,14.88
2017-10-01T02:16:01.404Z,14.90
2017-10-01T02:24:45.662Z,14.92
2017-10-01T02:27:40.353Z,14.94
2017-10-01T02:30:35.160Z,14.93
2017-10-01T02:33:29.853Z,14.93
2017-10-01T02:36:24.657Z,14.93
2017-10-01T02:39:19.503Z,14.93
2017-10-01T02:42:14.270Z,14.93
2017-10-01T02:45:09.065Z,14.94
2017-10-01T02:48:03.761Z,14.94
2017-10-01T02:50:58.558Z,14.94
2017-10-01T02:53:53.319Z,14.94
2017-10-01T02:56:48.038Z,14.94
2017-10-01T02:59:42.829Z,14.93
2017-10-01T03:02:37.613Z,14.93
2017-10-01T03:05:32.352Z,14.93
2017-10-01T03:08:27.443Z,14.93
2017-10-01T03:14:16.933Z,14.93
2017-10-01T03:20:06.622Z,14.94
2017-10-01T03:25:56.334Z,14.94
2017-10-01T03:28:51.228Z,14.94
2017-10-01T03:31:46.029Z,14.93
2017-10-01T03:34:40.913Z,14.94
2017-10-01T03:37:35.697Z,14.94
2017-10-01T03:40:30.543Z,14.93
2017-10-01T03:43:25.305Z,14.93
2017-10-01T03:46:19.959Z,14.92
2017-10-01T03:49:14.659Z,14.92
2017-10-01T03:55:04.194Z,14.91
2017-10-01T03:57:58.982Z,14.91
2017-10-01T04:00:53.638Z,14.91
2017-10-01T04:06:43.149Z,14.92
2017-10-01T04:09:37.919Z,14.91
2017-10-01T04:12:33.209Z,14.92
2017-10-01T04:15:27.831Z,14.91
2017-10-01T04:18:22.628Z,14.91
2017-10-01T04:21:17.337Z,14.91
2017-10-01T04:24:12.049Z,14.90
2017-10-01T04:27:06.818Z,14.90
2017-10-01T04:30:01.581Z,14.90
2017-10-01T04:32:56.358Z,14.89
2017-10-01T04:35:51.103Z,14.89
2017-10-01T04:41:40.609Z,14.89
2017-10-01T04:47:30.076Z,14.88
2017-10-01T04:50:24.829Z,14.87
2017-10-01T04:56:14.227Z,14.84
2017-10-01T04:59:08.848Z,14.83
2017-10-01T05:02:03.483Z,14.82
2017-10-01T05:04:58.211Z,14.79
2017-10-01T05:08:26.762Z,14.76
2017-10-01T05:28:04.275Z,15.64
2017-10-01T05:30:47.968Z,15.71
2017-10-01T05:33:41.782Z,15.67
2017-10-01T05:36:36.126Z,15.58
2017-10-01T05:39:30.514Z,15.47
2017-10-01T05:47:07.574Z,15.40
2017-10-01T05:50:13.803Z,15.50
2017-10-01T05:53:01.025Z,15.51
2017-10-01T05:55:55.339Z,15.45
2017-10-01T05:58:49.926Z,15.36
2017-10-01T06:09:16.582Z,15.52
2017-10-01T06:12:00.135Z,15.65
2017-10-01T06:14:53.777Z,15.65
2017-10-01T06:18:10.700Z,15.57
2017-10-01T06:27:00.089Z,15.65
2017-10-01T06:31:36.608Z,15.80
2017-10-01T06:34:20.685Z,15.85
2017-10-01T06:37:14.581Z,15.81
2017-10-01T06:43:03.732Z,15.64
2017-10-01T06:45:58.497Z,15.55
2017-10-01T06:54:42.670Z,15.34
2017-10-01T06:57:37.471Z,15.29
2017-10-01T07:00:32.146Z,15.25
2017-10-01T07:30:09.775Z,16.22
2017-10-01T07:33:15.760Z,16.32
2017-10-01T08:23:58.427Z,17.11
2017-10-01T08:26:52.900Z,17.09
